Huvudsida
METAR-TAF:

METAR-TAF

Flygplatser :

Aeraport Vitsebsk

Vitsebsk, Vitryssland

latitud: 55-10N, longitud: 030-13E, höjd: 176 m

Aktuellt väderrapport

Denna rapport gjordes för 9 timmar och 34 minuter sedan, klockan 16:00 UTC
Vind 4 kt från ost/nordost
Temperatur 21°C
Fuktighet 64%
Tryck 1021 hPa
Sikt 10 km eller mer
Spridda moln på en höjd av 3600 ft

METAR: UMII 171600Z 07002MPS 9999 SCT036 21/14 Q1021 R23/CLRD// NOSIG

Tid: 04:34 (01:34 UTC)

Väderprognos

Denna rapport gjordes för 11 timmar och 32 minuter sedan, klockan 14:02 UTC
Prognos gäller från 20 kl. 15 UTC till 20 kl. 24 UTC
Vind 8 kt från syd i byarna ända upp till 17 kt
Sikt 10 km eller mer
Brutna moln på en höjd av 2000 ft
Temporärt
från 20 kl. 15 UTC till 20 kl. 24 UTC
Vind 17 kt varierande vindriktning
Sikt: 2000 m
Brutna moln på en höjd av 500 ft
Brutna moln på en höjd av 1500 ft, Cumulonimbus.
regnskurar

TAF: UMII 201402Z 2015/2024 19004G09MPS 9999 BKN020 TEMPO 2015/2024 VRB09MPS 2000 SHRA BKN005 BKN015CB

Aktuella väderrapporter och prognoser från 4000 flygplatser (METAR- och TAF-rapporter).

De tillgängliga stationerna syns som gula och röda prickar på kartan.

För musen över prickarna för att se namnen på stationerna.

Klicka sedan för att få väderrapporter och prognoser.

För att ändra kartan: Klicka på de gröna knapparna med ett svart kors på för att zooma in; den gröna knappen med ett streck på för att zooma ut; eller på de gröna pilarna för angränsande kartor.


METAR-TAF: